KHB103 UNOO-VTBS
Flight info
| Callsign | KHB103 |
|---|---|
| Flight time | N/A |
| Altitude | 41000 |
| Route | ODELA6C ODELA B236 SOMOL P984 KANET Z584 PIVAL W361 OBUNA Z584 KABIZ M166 SARIN/K0902S1250 A368 FKG W192 LUPRO V116 ESDEX W192 DUMIN Y1 MEPEP Y2 LUVAR L888 BIDRU A581 SAGAG/N0490F410 B218 LPB B346 NOBER NORTA1C |
| Aircraft | A359/H-SDE2E3GHIJ3J4J5LM1ORWXY/LB1D1 |
Departure
| Time | 2026-04-29 01:39 |
|---|---|
| Airport | Omsk Central Airport (UNOO) |
Arrival
| Time | N/A |
|---|---|
| Airport | Suvarnabhumi Airport (VTBS) |
| Time | Latitude | Longitude | Altitude | Speed | Heading |
|---|---|---|---|---|---|
| 2026-04-29 01:26 | 54.96315 | 73.31932 | 314 ft | 0 kts | 137° |
| 2026-04-29 01:31 | 54.96313 | 73.31935 | 314 ft | 3 kts | 137° |
| 2026-04-29 01:31 | 54.96282 | 73.31996 | 316 ft | 8 kts | 121° |
| 2026-04-29 01:32 | 54.96286 | 73.32068 | 315 ft | 7 kts | 70° |
| 2026-04-29 01:32 | 54.96320 | 73.32146 | 313 ft | 10 kts | 41° |
| 2026-04-29 01:32 | 54.96386 | 73.32218 | 314 ft | 13 kts | 18° |
| 2026-04-29 01:32 | 54.96437 | 73.32144 | 313 ft | 11 kts | 280° |
| 2026-04-29 01:33 | 54.96430 | 73.32001 | 316 ft | 13 kts | 258° |
| 2026-04-29 01:33 | 54.96409 | 73.31835 | 314 ft | 15 kts | 257° |
| 2026-04-29 01:33 | 54.96384 | 73.31649 | 317 ft | 17 kts | 257° |
| 2026-04-29 01:33 | 54.96371 | 73.31546 | 316 ft | 9 kts | 257° |
| 2026-04-29 01:34 | 54.96356 | 73.31431 | 317 ft | 11 kts | 257° |
| 2026-04-29 01:34 | 54.96338 | 73.31291 | 317 ft | 13 kts | 257° |
| 2026-04-29 01:34 | 54.96314 | 73.31127 | 318 ft | 15 kts | 255° |
| 2026-04-29 01:34 | 54.96290 | 73.30942 | 319 ft | 17 kts | 258° |
| 2026-04-29 01:35 | 54.96266 | 73.30763 | 320 ft | 16 kts | 257° |
| 2026-04-29 01:35 | 54.96241 | 73.30566 | 322 ft | 18 kts | 257° |
| 2026-04-29 01:35 | 54.96214 | 73.30348 | 322 ft | 19 kts | 257° |
| 2026-04-29 01:35 | 54.96184 | 73.30148 | 321 ft | 17 kts | 256° |
| 2026-04-29 01:36 | 54.96156 | 73.29945 | 321 ft | 16 kts | 257° |
| 2026-04-29 01:36 | 54.96133 | 73.29770 | 323 ft | 10 kts | 258° |
| 2026-04-29 01:36 | 54.96116 | 73.29641 | 324 ft | 12 kts | 256° |
| 2026-04-29 01:36 | 54.96095 | 73.29483 | 325 ft | 15 kts | 257° |
| 2026-04-29 01:37 | 54.96083 | 73.29366 | 324 ft | 6 kts | 272° |
| 2026-04-29 01:37 | 54.96107 | 73.29301 | 327 ft | 7 kts | 324° |
| 2026-04-29 01:37 | 54.96164 | 73.29260 | 325 ft | 10 kts | 342° |
| 2026-04-29 01:37 | 54.96241 | 73.29222 | 325 ft | 13 kts | 346° |
| 2026-04-29 01:38 | 54.96337 | 73.29185 | 325 ft | 16 kts | 346° |
| 2026-04-29 01:38 | 54.96434 | 73.29152 | 323 ft | 14 kts | 4° |
| 2026-04-29 01:38 | 54.96476 | 73.29248 | 322 ft | 8 kts | 76° |
| 2026-04-29 01:38 | 54.96477 | 73.29254 | 322 ft | 0 kts | 76° |
| 2026-04-29 01:39 | 54.96487 | 73.29323 | 325 ft | 34 kts | 76° |
| 2026-04-29 01:39 | 54.96617 | 73.30308 | 322 ft | 130 kts | 78° |
| 2026-04-29 01:39 | 54.96904 | 73.32145 | 778 ft | 166 kts | 75° |
| 2026-04-29 01:39 | 54.97288 | 73.34036 | 1845 ft | 175 kts | 78° |
| 2026-04-29 01:40 | 54.97650 | 73.36194 | 2224 ft | 199 kts | 82° |
| 2026-04-29 01:40 | 54.98025 | 73.38681 | 2476 ft | 226 kts | 82° |
| 2026-04-29 01:40 | 54.98432 | 73.41473 | 2829 ft | 249 kts | 81° |
| 2026-04-29 01:40 | 54.98851 | 73.44490 | 3350 ft | 260 kts | 84° |
| 2026-04-29 01:41 | 54.98908 | 73.47608 | 4039 ft | 259 kts | 103° |
| 2026-04-29 01:41 | 54.98258 | 73.50468 | 4768 ft | 254 kts | 130° |
| 2026-04-29 01:41 | 54.96979 | 73.52566 | 5494 ft | 252 kts | 147° |
| 2026-04-29 01:41 | 54.95478 | 73.54144 | 6249 ft | 253 kts | 155° |
| 2026-04-29 01:42 | 54.93883 | 73.55444 | 6986 ft | 254 kts | 158° |
| 2026-04-29 01:42 | 54.92255 | 73.56637 | 7655 ft | 257 kts | 160° |
| 2026-04-29 01:42 | 54.90586 | 73.57845 | 8376 ft | 259 kts | 159° |
| 2026-04-29 01:42 | 54.88922 | 73.59092 | 9068 ft | 262 kts | 159° |
| 2026-04-29 01:43 | 54.87240 | 73.60403 | 9767 ft | 265 kts | 158° |
| 2026-04-29 01:43 | 54.85555 | 73.61756 | 10453 ft | 269 kts | 158° |
| 2026-04-29 01:43 | 54.83820 | 73.63173 | 10797 ft | 283 kts | 158° |
| 2026-04-29 01:43 | 54.81985 | 73.64673 | 11071 ft | 299 kts | 158° |
| 2026-04-29 01:44 | 54.80070 | 73.66240 | 11343 ft | 314 kts | 158° |
| 2026-04-29 01:44 | 54.78039 | 73.67896 | 11626 ft | 327 kts | 158° |
| 2026-04-29 01:44 | 54.75938 | 73.69594 | 11935 ft | 338 kts | 158° |
| 2026-04-29 01:44 | 54.73783 | 73.71333 | 12369 ft | 345 kts | 158° |
| 2026-04-29 01:45 | 54.71598 | 73.73101 | 12829 ft | 350 kts | 158° |
| 2026-04-29 01:45 | 54.69381 | 73.74901 | 13310 ft | 354 kts | 158° |
| 2026-04-29 01:45 | 54.67164 | 73.76704 | 13801 ft | 358 kts | 157° |
| 2026-04-29 01:45 | 54.64907 | 73.78568 | 14242 ft | 363 kts | 155° |
| 2026-04-29 01:46 | 54.62734 | 73.80849 | 14660 ft | 369 kts | 148° |
| 2026-04-29 01:46 | 54.60667 | 73.83500 | 15102 ft | 373 kts | 145° |
| 2026-04-29 01:46 | 54.58628 | 73.86313 | 15542 ft | 376 kts | 143° |
| 2026-04-29 01:46 | 54.56610 | 73.89223 | 15976 ft | 380 kts | 142° |
| 2026-04-29 01:47 | 54.54593 | 73.92183 | 16427 ft | 383 kts | 142° |
| 2026-04-29 01:47 | 54.52554 | 73.95176 | 16870 ft | 386 kts | 142° |
| 2026-04-29 01:47 | 54.50496 | 73.98179 | 17318 ft | 389 kts | 142° |
| 2026-04-29 01:47 | 54.48415 | 74.01195 | 17759 ft | 392 kts | 142° |
| 2026-04-29 01:48 | 54.46312 | 74.04221 | 18200 ft | 396 kts | 142° |
| 2026-04-29 01:48 | 54.44190 | 74.07260 | 18627 ft | 399 kts | 143° |
| 2026-04-29 01:48 | 54.42053 | 74.10312 | 19003 ft | 402 kts | 143° |
| 2026-04-29 01:48 | 54.39898 | 74.13383 | 19391 ft | 404 kts | 143° |
| 2026-04-29 01:49 | 54.37724 | 74.16477 | 19776 ft | 406 kts | 143° |
| 2026-04-29 01:49 | 54.35551 | 74.19564 | 20156 ft | 408 kts | 143° |
| 2026-04-29 01:49 | 54.33354 | 74.22683 | 20535 ft | 411 kts | 143° |
| 2026-04-29 01:49 | 54.31144 | 74.25816 | 20908 ft | 413 kts | 143° |
| 2026-04-29 01:50 | 54.28924 | 74.28960 | 21289 ft | 415 kts | 143° |
| 2026-04-29 01:50 | 54.26682 | 74.32130 | 21650 ft | 418 kts | 143° |
| 2026-04-29 01:50 | 54.24437 | 74.35301 | 22023 ft | 420 kts | 143° |
| 2026-04-29 01:50 | 54.22203 | 74.38450 | 22374 ft | 422 kts | 143° |
| 2026-04-29 01:51 | 54.19937 | 74.41640 | 22716 ft | 424 kts | 143° |
| 2026-04-29 01:51 | 54.17653 | 74.44850 | 23066 ft | 427 kts | 143° |
| 2026-04-29 01:51 | 54.15352 | 74.48079 | 23412 ft | 429 kts | 143° |
| 2026-04-29 01:51 | 54.13046 | 74.51310 | 23750 ft | 431 kts | 143° |
| 2026-04-29 01:52 | 54.10716 | 74.54571 | 24066 ft | 434 kts | 143° |
| 2026-04-29 01:52 | 54.08377 | 74.57838 | 24337 ft | 436 kts | 143° |
| 2026-04-29 01:52 | 54.06027 | 74.61116 | 24596 ft | 438 kts | 143° |
| 2026-04-29 01:52 | 54.03654 | 74.64423 | 24887 ft | 441 kts | 143° |
| 2026-04-29 01:53 | 54.01274 | 74.67733 | 25172 ft | 443 kts | 143° |
| 2026-04-29 01:53 | 53.98893 | 74.71041 | 25457 ft | 445 kts | 143° |
| 2026-04-29 01:53 | 53.96481 | 74.74385 | 25739 ft | 447 kts | 143° |
| 2026-04-29 01:53 | 53.94067 | 74.77728 | 26039 ft | 450 kts | 143° |
| 2026-04-29 01:54 | 53.91638 | 74.81086 | 26335 ft | 452 kts | 143° |
| 2026-04-29 01:54 | 53.89188 | 74.84468 | 26621 ft | 454 kts | 143° |
| 2026-04-29 01:54 | 53.86731 | 74.87855 | 26961 ft | 457 kts | 143° |
| 2026-04-29 01:54 | 53.84247 | 74.91272 | 27298 ft | 459 kts | 142° |
| 2026-04-29 01:55 | 53.81763 | 74.94685 | 27638 ft | 462 kts | 142° |
| 2026-04-29 01:55 | 53.79274 | 74.98107 | 27973 ft | 464 kts | 142° |
| 2026-04-29 01:55 | 53.76762 | 75.01559 | 28331 ft | 467 kts | 142° |
| 2026-04-29 01:55 | 53.74222 | 75.05045 | 28693 ft | 470 kts | 142° |
| 2026-04-29 01:56 | 53.71670 | 75.08543 | 29051 ft | 473 kts | 142° |
| 2026-04-29 01:56 | 53.69114 | 75.12041 | 29418 ft | 476 kts | 142° |
| 2026-04-29 01:56 | 53.66527 | 75.15575 | 29775 ft | 478 kts | 142° |
| 2026-04-29 01:56 | 53.63934 | 75.19113 | 30140 ft | 482 kts | 142° |
| 2026-04-29 01:57 | 53.61323 | 75.22667 | 30510 ft | 485 kts | 142° |
| 2026-04-29 01:57 | 53.58699 | 75.26233 | 30813 ft | 488 kts | 142° |
| 2026-04-29 01:57 | 53.56036 | 75.29846 | 31132 ft | 490 kts | 142° |
| 2026-04-29 01:57 | 53.53379 | 75.33445 | 31439 ft | 493 kts | 142° |
| 2026-04-29 01:58 | 53.50699 | 75.37068 | 31735 ft | 496 kts | 142° |
| 2026-04-29 01:58 | 53.48008 | 75.40701 | 32045 ft | 498 kts | 142° |
| 2026-04-29 01:58 | 53.45326 | 75.44316 | 32331 ft | 501 kts | 142° |
| 2026-04-29 01:58 | 53.42602 | 75.47980 | 32599 ft | 503 kts | 141° |
| 2026-04-29 01:59 | 53.39823 | 75.51713 | 32863 ft | 506 kts | 141° |
| 2026-04-29 01:59 | 53.37083 | 75.55386 | 33146 ft | 508 kts | 141° |
| 2026-04-29 01:59 | 53.34311 | 75.59097 | 33521 ft | 508 kts | 141° |
| 2026-04-29 01:59 | 53.31559 | 75.62775 | 33910 ft | 507 kts | 141° |
| 2026-04-29 02:00 | 53.28798 | 75.66459 | 34307 ft | 507 kts | 141° |
| 2026-04-29 02:00 | 53.26080 | 75.70079 | 34650 ft | 507 kts | 141° |
| 2026-04-29 02:00 | 53.23286 | 75.73793 | 35004 ft | 506 kts | 141° |
| 2026-04-29 02:00 | 53.20538 | 75.77441 | 35368 ft | 505 kts | 142° |
| 2026-04-29 02:01 | 53.17797 | 75.81073 | 35740 ft | 504 kts | 142° |
| 2026-04-29 02:01 | 53.15049 | 75.84708 | 36102 ft | 503 kts | 142° |
| 2026-04-29 02:01 | 53.12312 | 75.88322 | 36476 ft | 502 kts | 142° |
| 2026-04-29 02:01 | 53.09626 | 75.91891 | 36812 ft | 502 kts | 141° |
| 2026-04-29 02:02 | 53.06916 | 75.95560 | 37175 ft | 501 kts | 141° |
| 2026-04-29 02:02 | 53.04223 | 75.99239 | 37526 ft | 500 kts | 141° |
| 2026-04-29 02:02 | 53.01545 | 76.02901 | 37868 ft | 500 kts | 141° |
| 2026-04-29 02:02 | 52.98858 | 76.06567 | 38198 ft | 499 kts | 141° |
| 2026-04-29 02:03 | 52.96166 | 76.10222 | 38525 ft | 499 kts | 141° |
| 2026-04-29 02:03 | 52.93478 | 76.13859 | 38844 ft | 498 kts | 142° |
| 2026-04-29 02:03 | 52.90798 | 76.17473 | 39122 ft | 498 kts | 142° |
| 2026-04-29 02:03 | 52.88110 | 76.21089 | 39348 ft | 498 kts | 142° |
| 2026-04-29 02:04 | 52.85418 | 76.24703 | 39548 ft | 498 kts | 142° |
| 2026-04-29 02:04 | 52.82720 | 76.28318 | 39745 ft | 498 kts | 142° |
| 2026-04-29 02:04 | 52.80026 | 76.31922 | 39942 ft | 498 kts | 142° |
| 2026-04-29 02:04 | 52.77333 | 76.35519 | 40145 ft | 499 kts | 142° |
| 2026-04-29 02:05 | 52.74623 | 76.39134 | 40305 ft | 499 kts | 142° |
| 2026-04-29 02:05 | 52.71919 | 76.42735 | 40497 ft | 499 kts | 142° |
| 2026-04-29 02:05 | 52.69220 | 76.46323 | 40666 ft | 500 kts | 142° |
| 2026-04-29 02:05 | 52.66509 | 76.49921 | 40840 ft | 500 kts | 142° |
| 2026-04-29 02:06 | 52.63797 | 76.53516 | 41011 ft | 500 kts | 142° |
| 2026-04-29 02:06 | 52.61121 | 76.57056 | 41186 ft | 500 kts | 142° |
| 2026-04-29 02:06 | 52.58399 | 76.60651 | 41344 ft | 501 kts | 142° |
| 2026-04-29 02:06 | 52.55679 | 76.64238 | 41392 ft | 502 kts | 142° |
| 2026-04-29 02:07 | 52.50236 | 76.71399 | 41386 ft | 502 kts | 142° |
| 2026-04-29 02:07 | 52.44778 | 76.78554 | 41385 ft | 502 kts | 142° |
| 2026-04-29 02:08 | 52.40247 | 76.84477 | 41380 ft | 502 kts | 142° |
| 2026-04-29 02:08 | 52.33865 | 76.92792 | 41374 ft | 502 kts | 142° |
| 2026-04-29 02:09 | 52.29320 | 76.98696 | 41374 ft | 502 kts | 142° |
| 2026-04-29 02:09 | 52.22927 | 77.06974 | 41376 ft | 502 kts | 142° |
| 2026-04-29 02:10 | 52.18664 | 77.13417 | 41371 ft | 503 kts | 135° |
| 2026-04-29 02:10 | 52.12976 | 77.22969 | 41374 ft | 503 kts | 135° |
| 2026-04-29 02:11 | 52.08958 | 77.29816 | 41373 ft | 503 kts | 134° |
| 2026-04-29 02:11 | 52.04132 | 77.38023 | 41377 ft | 503 kts | 135° |
| 2026-04-29 02:12 | 51.99279 | 77.46234 | 41380 ft | 503 kts | 135° |
| 2026-04-29 02:12 | 51.94430 | 77.54402 | 41382 ft | 503 kts | 135° |
| 2026-04-29 02:13 | 51.89571 | 77.62557 | 41382 ft | 503 kts | 135° |
| 2026-04-29 02:13 | 51.84702 | 77.70702 | 41383 ft | 503 kts | 135° |
| 2026-04-29 02:14 | 51.79869 | 77.78760 | 41381 ft | 503 kts | 135° |
| 2026-04-29 02:14 | 51.75008 | 77.86857 | 41383 ft | 503 kts | 134° |
| 2026-04-29 02:15 | 51.70265 | 77.95185 | 41382 ft | 503 kts | 133° |
| 2026-04-29 02:15 | 51.65586 | 78.03567 | 41380 ft | 503 kts | 133° |
| 2026-04-29 02:16 | 51.60886 | 78.11902 | 41383 ft | 503 kts | 133° |
| 2026-04-29 02:16 | 51.56200 | 78.20126 | 41382 ft | 503 kts | 133° |
| 2026-04-29 02:17 | 51.51562 | 78.28222 | 41381 ft | 504 kts | 133° |
| 2026-04-29 02:17 | 51.46815 | 78.36484 | 41380 ft | 504 kts | 133° |
| 2026-04-29 02:18 | 51.42056 | 78.44742 | 41383 ft | 504 kts | 133° |
| 2026-04-29 02:18 | 51.37320 | 78.52935 | 41380 ft | 504 kts | 133° |
| 2026-04-29 02:19 | 51.32557 | 78.61145 | 41382 ft | 504 kts | 133° |
| 2026-04-29 02:19 | 51.27785 | 78.69346 | 41379 ft | 504 kts | 133° |
| 2026-04-29 02:20 | 51.23007 | 78.77531 | 41379 ft | 504 kts | 133° |
| 2026-04-29 02:20 | 51.18220 | 78.85702 | 41375 ft | 504 kts | 133° |
| 2026-04-29 02:21 | 51.13427 | 78.93859 | 41373 ft | 504 kts | 133° |
| 2026-04-29 02:21 | 51.08631 | 79.01995 | 41371 ft | 504 kts | 133° |
| 2026-04-29 02:22 | 51.03824 | 79.10121 | 41369 ft | 504 kts | 134° |
| 2026-04-29 02:22 | 50.99016 | 79.18223 | 41363 ft | 504 kts | 134° |
| 2026-04-29 02:23 | 50.94196 | 79.26319 | 41360 ft | 504 kts | 134° |
| 2026-04-29 02:23 | 50.89375 | 79.34391 | 41358 ft | 504 kts | 134° |
| 2026-04-29 02:24 | 50.84534 | 79.42456 | 41355 ft | 505 kts | 134° |
| 2026-04-29 02:25 | 50.77294 | 79.54466 | 41352 ft | 505 kts | 134° |
| 2026-04-29 02:25 | 50.72409 | 79.62542 | 41349 ft | 505 kts | 134° |
| 2026-04-29 02:26 | 50.67583 | 79.70494 | 41346 ft | 505 kts | 134° |
| 2026-04-29 02:26 | 50.62732 | 79.78461 | 41344 ft | 505 kts | 134° |
| 2026-04-29 02:27 | 50.57854 | 79.86447 | 41336 ft | 505 kts | 134° |
| 2026-04-29 02:27 | 50.52973 | 79.94415 | 41327 ft | 505 kts | 134° |
| 2026-04-29 02:28 | 50.48088 | 80.02361 | 41326 ft | 506 kts | 134° |
| 2026-04-29 02:28 | 50.43192 | 80.10302 | 41320 ft | 506 kts | 134° |
| 2026-04-29 02:29 | 50.38079 | 80.17836 | 41318 ft | 506 kts | 143° |
| 2026-04-29 02:29 | 50.31849 | 80.22891 | 41324 ft | 504 kts | 163° |
| 2026-04-29 02:29 | 50.28431 | 80.24062 | 41320 ft | 502 kts | 174° |
| 2026-04-29 02:30 | 50.24962 | 80.24583 | 41320 ft | 502 kts | 177° |
| 2026-04-29 02:30 | 50.17987 | 80.25184 | 41319 ft | 502 kts | 178° |
| 2026-04-29 02:31 | 50.11041 | 80.25684 | 41320 ft | 502 kts | 178° |
| 2026-04-29 02:31 | 50.04064 | 80.26252 | 41322 ft | 502 kts | 178° |
| 2026-04-29 02:32 | 49.97098 | 80.26864 | 41326 ft | 502 kts | 178° |
| 2026-04-29 02:32 | 49.90142 | 80.27485 | 41325 ft | 502 kts | 178° |
| 2026-04-29 02:33 | 49.83127 | 80.28107 | 41324 ft | 502 kts | 178° |
| 2026-04-29 02:33 | 49.76173 | 80.28719 | 41320 ft | 502 kts | 178° |
| 2026-04-29 02:34 | 49.69190 | 80.29372 | 41323 ft | 502 kts | 177° |
| 2026-04-29 02:34 | 49.62216 | 80.30143 | 41323 ft | 503 kts | 177° |
| 2026-04-29 02:35 | 49.55246 | 80.30859 | 41326 ft | 502 kts | 177° |
| 2026-04-29 02:35 | 49.48296 | 80.31492 | 41324 ft | 502 kts | 178° |
| 2026-04-29 02:36 | 49.41308 | 80.32112 | 41321 ft | 502 kts | 178° |
| 2026-04-29 02:36 | 49.34327 | 80.32733 | 41322 ft | 502 kts | 178° |
| 2026-04-29 02:37 | 49.27310 | 80.33361 | 41320 ft | 502 kts | 178° |
| 2026-04-29 02:37 | 49.20325 | 80.33986 | 41321 ft | 502 kts | 178° |
| 2026-04-29 02:38 | 49.13391 | 80.34604 | 41319 ft | 502 kts | 178° |
| 2026-04-29 02:38 | 49.06406 | 80.35225 | 41319 ft | 502 kts | 178° |
| 2026-04-29 02:39 | 48.99419 | 80.35844 | 41317 ft | 502 kts | 178° |
| 2026-04-29 02:39 | 48.92437 | 80.36461 | 41317 ft | 502 kts | 178° |
| 2026-04-29 02:40 | 48.85464 | 80.37076 | 41316 ft | 503 kts | 178° |
| 2026-04-29 02:40 | 48.78485 | 80.37689 | 41314 ft | 503 kts | 178° |
| 2026-04-29 02:41 | 48.71496 | 80.38301 | 41314 ft | 503 kts | 178° |
| 2026-04-29 02:41 | 48.64507 | 80.38912 | 41321 ft | 503 kts | 178° |
| 2026-04-29 02:42 | 48.57522 | 80.39522 | 41319 ft | 503 kts | 178° |
| 2026-04-29 02:42 | 48.50546 | 80.40128 | 41319 ft | 503 kts | 178° |
| 2026-04-29 02:43 | 48.43586 | 80.40731 | 41320 ft | 503 kts | 178° |
| 2026-04-29 02:43 | 48.36550 | 80.41339 | 41317 ft | 503 kts | 178° |
| 2026-04-29 02:44 | 48.29621 | 80.41937 | 41313 ft | 503 kts | 178° |
| 2026-04-29 02:44 | 48.22614 | 80.42539 | 41310 ft | 503 kts | 178° |
| 2026-04-29 02:45 | 48.15636 | 80.43136 | 41300 ft | 503 kts | 178° |
| 2026-04-29 02:45 | 48.08650 | 80.43733 | 41290 ft | 503 kts | 178° |
| 2026-04-29 02:46 | 48.01652 | 80.44532 | 41283 ft | 504 kts | 172° |
| 2026-04-29 02:46 | 47.94974 | 80.47692 | 41277 ft | 506 kts | 153° |
| 2026-04-29 02:46 | 47.92005 | 80.50489 | 41274 ft | 507 kts | 142° |
| 2026-04-29 02:47 | 47.89422 | 80.54022 | 41269 ft | 507 kts | 131° |
| 2026-04-29 02:47 | 47.85302 | 80.62540 | 41262 ft | 507 kts | 122° |
| 2026-04-29 02:48 | 47.81533 | 80.71432 | 41256 ft | 508 kts | 121° |
| 2026-04-29 02:48 | 47.77768 | 80.80316 | 41248 ft | 508 kts | 122° |
| 2026-04-29 02:49 | 47.73965 | 80.89151 | 41247 ft | 509 kts | 122° |
| 2026-04-29 02:49 | 47.70110 | 80.97985 | 41243 ft | 509 kts | 122° |
| 2026-04-29 02:50 | 47.66273 | 81.06735 | 41239 ft | 509 kts | 122° |
| 2026-04-29 02:50 | 47.62412 | 81.15526 | 41234 ft | 509 kts | 122° |
| 2026-04-29 02:51 | 47.58553 | 81.24293 | 41234 ft | 509 kts | 123° |
| 2026-04-29 02:51 | 47.54689 | 81.33127 | 41235 ft | 509 kts | 122° |
| 2026-04-29 02:52 | 47.50914 | 81.42012 | 41233 ft | 510 kts | 121° |
| 2026-04-29 02:52 | 47.47157 | 81.50859 | 41236 ft | 511 kts | 122° |
| 2026-04-29 02:53 | 47.43353 | 81.59748 | 41241 ft | 513 kts | 122° |
| 2026-04-29 02:53 | 47.39525 | 81.68637 | 41245 ft | 513 kts | 122° |
| 2026-04-29 02:54 | 47.35695 | 81.77525 | 41247 ft | 513 kts | 122° |
| 2026-04-29 02:54 | 47.32504 | 81.84905 | 41245 ft | 512 kts | 122° |
| 2026-04-29 02:55 | 47.28036 | 81.95178 | 41243 ft | 509 kts | 122° |
| 2026-04-29 02:55 | 47.24844 | 82.02468 | 41238 ft | 509 kts | 122° |
| 2026-04-29 02:56 | 47.20383 | 82.12655 | 41230 ft | 509 kts | 122° |
| 2026-04-29 02:56 | 47.17161 | 82.19969 | 41223 ft | 509 kts | 122° |
| 2026-04-29 02:57 | 47.13303 | 82.28701 | 41214 ft | 510 kts | 122° |
| 2026-04-29 02:57 | 47.09437 | 82.37430 | 41209 ft | 510 kts | 122° |
| 2026-04-29 02:58 | 47.04933 | 82.47567 | 41206 ft | 510 kts | 123° |
| 2026-04-29 02:58 | 47.01674 | 82.54882 | 41205 ft | 510 kts | 123° |
| 2026-04-29 02:59 | 46.97794 | 82.63565 | 41201 ft | 510 kts | 123° |
| 2026-04-29 02:59 | 46.93896 | 82.72260 | 41197 ft | 510 kts | 123° |
| 2026-04-29 03:00 | 46.89995 | 82.80934 | 41191 ft | 511 kts | 123° |
| 2026-04-29 03:00 | 46.86083 | 82.89608 | 41186 ft | 511 kts | 123° |
| 2026-04-29 03:01 | 46.82307 | 82.98302 | 41189 ft | 511 kts | 121° |
| 2026-04-29 03:01 | 46.80434 | 83.02722 | 40836 ft | 510 kts | 121° |
| 2026-04-29 03:01 | 46.78603 | 83.07101 | 40961 ft | 503 kts | 121° |
| 2026-04-29 03:02 | 46.74991 | 83.15730 | 41000 ft | 495 kts | 121° |
| 2026-04-29 03:02 | 46.71358 | 83.24245 | 41001 ft | 493 kts | 122° |
| 2026-04-29 03:03 | 46.67708 | 83.32684 | 41000 ft | 494 kts | 122° |
| 2026-04-29 03:03 | 46.63999 | 83.41074 | 41000 ft | 494 kts | 124° |
| 2026-04-29 03:04 | 46.59908 | 83.49182 | 40999 ft | 494 kts | 127° |
| 2026-04-29 03:04 | 46.55769 | 83.57153 | 40999 ft | 494 kts | 127° |
| 2026-04-29 03:05 | 46.51703 | 83.65105 | 40999 ft | 494 kts | 126° |
| 2026-04-29 03:05 | 46.47624 | 83.73164 | 41002 ft | 494 kts | 126° |
| 2026-04-29 03:06 | 46.43555 | 83.81203 | 40999 ft | 494 kts | 126° |
| 2026-04-29 03:06 | 46.39489 | 83.89210 | 40999 ft | 494 kts | 126° |
| 2026-04-29 03:07 | 46.35408 | 83.97217 | 41000 ft | 494 kts | 126° |
| 2026-04-29 03:07 | 46.31317 | 84.05218 | 41001 ft | 494 kts | 126° |
| 2026-04-29 03:08 | 46.27221 | 84.13207 | 40999 ft | 494 kts | 126° |
| 2026-04-29 03:08 | 46.23122 | 84.21177 | 41000 ft | 494 kts | 127° |
| 2026-04-29 03:09 | 46.18994 | 84.29117 | 41000 ft | 494 kts | 127° |
| 2026-04-29 03:09 | 46.14888 | 84.36992 | 40999 ft | 494 kts | 127° |
| 2026-04-29 03:10 | 46.10755 | 84.44908 | 41000 ft | 494 kts | 127° |
| 2026-04-29 03:10 | 46.06629 | 84.52794 | 41000 ft | 494 kts | 127° |
| 2026-04-29 03:11 | 46.02472 | 84.60718 | 41002 ft | 494 kts | 127° |
| 2026-04-29 03:11 | 45.98331 | 84.68588 | 41003 ft | 494 kts | 127° |
| 2026-04-29 03:12 | 45.94181 | 84.76454 | 41000 ft | 494 kts | 127° |
| 2026-04-29 03:12 | 45.90053 | 84.84255 | 41001 ft | 494 kts | 127° |
| 2026-04-29 03:13 | 45.85887 | 84.92108 | 40999 ft | 494 kts | 127° |
| 2026-04-29 03:13 | 45.81722 | 84.99936 | 41000 ft | 494 kts | 127° |
| 2026-04-29 03:14 | 45.77569 | 85.07721 | 41000 ft | 494 kts | 127° |
| 2026-04-29 03:14 | 45.73384 | 85.15542 | 41001 ft | 494 kts | 127° |
| 2026-04-29 03:15 | 45.69201 | 85.23340 | 41001 ft | 494 kts | 127° |
| 2026-04-29 03:15 | 45.65024 | 85.31156 | 41000 ft | 494 kts | 127° |
| 2026-04-29 03:16 | 45.60858 | 85.38959 | 40999 ft | 494 kts | 127° |
| 2026-04-29 03:16 | 45.56684 | 85.46749 | 41001 ft | 494 kts | 127° |
| 2026-04-29 03:17 | 45.52507 | 85.54517 | 41000 ft | 494 kts | 127° |
| 2026-04-29 03:17 | 45.48311 | 85.62296 | 41001 ft | 494 kts | 127° |
| 2026-04-29 03:18 | 45.44120 | 85.70045 | 41000 ft | 494 kts | 127° |
| 2026-04-29 03:18 | 45.39915 | 85.77799 | 40999 ft | 494 kts | 128° |
| 2026-04-29 03:19 | 45.35716 | 85.85520 | 41001 ft | 494 kts | 128° |
| 2026-04-29 03:19 | 45.31506 | 85.93241 | 40999 ft | 494 kts | 128° |
| 2026-04-29 03:20 | 45.27291 | 86.00950 | 41001 ft | 494 kts | 128° |
| 2026-04-29 03:20 | 45.23067 | 86.08655 | 41002 ft | 494 kts | 128° |
| 2026-04-29 03:21 | 45.18871 | 86.16288 | 41002 ft | 494 kts | 128° |
| 2026-04-29 03:21 | 45.14620 | 86.24000 | 40999 ft | 494 kts | 128° |
| 2026-04-29 03:22 | 45.10409 | 86.31620 | 41000 ft | 494 kts | 128° |
| 2026-04-29 03:22 | 45.06172 | 86.39264 | 41001 ft | 494 kts | 128° |
| 2026-04-29 03:23 | 45.01920 | 86.46917 | 40999 ft | 494 kts | 128° |
| 2026-04-29 03:23 | 44.97662 | 86.54558 | 41000 ft | 494 kts | 128° |
| 2026-04-29 03:24 | 44.93409 | 86.62172 | 41001 ft | 494 kts | 128° |
| 2026-04-29 03:24 | 44.89149 | 86.69776 | 41001 ft | 494 kts | 128° |
| 2026-04-29 03:25 | 44.84884 | 86.77370 | 41001 ft | 494 kts | 128° |
| 2026-04-29 03:25 | 44.80604 | 86.84944 | 41001 ft | 494 kts | 129° |
| 2026-04-29 03:26 | 44.76266 | 86.92451 | 41000 ft | 494 kts | 129° |
| 2026-04-29 03:26 | 44.71951 | 86.99883 | 41002 ft | 494 kts | 129° |
| 2026-04-29 03:27 | 44.67623 | 87.07378 | 41000 ft | 494 kts | 129° |
| 2026-04-29 03:27 | 44.63283 | 87.14880 | 40999 ft | 494 kts | 129° |
| 2026-04-29 03:28 | 44.58943 | 87.22366 | 41000 ft | 494 kts | 129° |
| 2026-04-29 03:28 | 44.54629 | 87.29792 | 41002 ft | 494 kts | 129° |
| 2026-04-29 03:29 | 44.50394 | 87.37372 | 41001 ft | 494 kts | 128° |
| 2026-04-29 03:29 | 44.46240 | 87.45030 | 41000 ft | 494 kts | 127° |
| 2026-04-29 03:30 | 44.42082 | 87.52687 | 41000 ft | 494 kts | 128° |
| 2026-04-29 03:30 | 44.37910 | 87.60310 | 40999 ft | 494 kts | 128° |
| 2026-04-29 03:31 | 44.31638 | 87.71725 | 41002 ft | 494 kts | 127° |
| 2026-04-29 03:31 | 44.27498 | 87.79407 | 41002 ft | 494 kts | 127° |
| 2026-04-29 03:32 | 44.23379 | 87.87082 | 41001 ft | 494 kts | 127° |
| 2026-04-29 03:32 | 44.19250 | 87.94745 | 41001 ft | 494 kts | 127° |
| 2026-04-29 03:33 | 44.15468 | 88.02651 | 41000 ft | 494 kts | 122° |
| 2026-04-29 03:33 | 44.11916 | 88.10894 | 40998 ft | 494 kts | 121° |
| 2026-04-29 03:34 | 44.08423 | 88.19115 | 40999 ft | 494 kts | 121° |
| 2026-04-29 03:34 | 44.04911 | 88.27333 | 41003 ft | 494 kts | 121° |
| 2026-04-29 03:35 | 44.01377 | 88.35543 | 41001 ft | 494 kts | 121° |
| 2026-04-29 03:35 | 43.97840 | 88.43726 | 41001 ft | 494 kts | 121° |
| 2026-04-29 03:36 | 43.94299 | 88.51893 | 40999 ft | 494 kts | 121° |
| 2026-04-29 03:36 | 43.90745 | 88.60069 | 40999 ft | 494 kts | 121° |
| 2026-04-29 03:37 | 43.87190 | 88.68225 | 41000 ft | 494 kts | 121° |
| 2026-04-29 03:37 | 43.83627 | 88.76374 | 40999 ft | 494 kts | 121° |
| 2026-04-29 03:38 | 43.80060 | 88.84510 | 41000 ft | 494 kts | 121° |
| 2026-04-29 03:38 | 43.76573 | 88.92442 | 41000 ft | 494 kts | 121° |
| 2026-04-29 03:39 | 43.72995 | 89.00559 | 41001 ft | 494 kts | 122° |
| 2026-04-29 03:39 | 43.69415 | 89.08659 | 41000 ft | 494 kts | 122° |
| 2026-04-29 03:40 | 43.65822 | 89.16763 | 41002 ft | 494 kts | 122° |
| 2026-04-29 03:40 | 43.62223 | 89.24860 | 41003 ft | 494 kts | 122° |
| 2026-04-29 03:41 | 43.58629 | 89.32923 | 41000 ft | 494 kts | 122° |
| 2026-04-29 03:41 | 43.55014 | 89.41018 | 41002 ft | 494 kts | 122° |
| 2026-04-29 03:42 | 43.51456 | 89.49135 | 40999 ft | 494 kts | 121° |
| 2026-04-29 03:42 | 43.48522 | 89.55883 | 41000 ft | 494 kts | 121° |
| 2026-04-29 03:43 | 43.44990 | 89.63982 | 41001 ft | 494 kts | 121° |
| 2026-04-29 03:43 | 43.41441 | 89.72081 | 40999 ft | 494 kts | 121° |
| 2026-04-29 03:44 | 43.37873 | 89.80190 | 41001 ft | 494 kts | 121° |
| 2026-04-29 03:44 | 43.34310 | 89.88268 | 41000 ft | 494 kts | 122° |
| 2026-04-29 03:45 | 43.30739 | 89.96339 | 40999 ft | 494 kts | 122° |
| 2026-04-29 03:45 | 43.27165 | 90.04397 | 41001 ft | 494 kts | 122° |
| 2026-04-29 03:46 | 43.23006 | 90.13747 | 41001 ft | 494 kts | 122° |
| 2026-04-29 03:46 | 43.20007 | 90.20481 | 41000 ft | 494 kts | 122° |
| 2026-04-29 03:47 | 43.16418 | 90.28531 | 41000 ft | 494 kts | 122° |
| 2026-04-29 03:47 | 43.12833 | 90.36543 | 40999 ft | 494 kts | 122° |
| 2026-04-29 03:48 | 43.09248 | 90.44525 | 41000 ft | 494 kts | 122° |
| 2026-04-29 03:48 | 43.05643 | 90.52523 | 40999 ft | 494 kts | 122° |
| 2026-04-29 03:49 | 43.02036 | 90.60506 | 41000 ft | 494 kts | 122° |
| 2026-04-29 03:49 | 42.98417 | 90.68492 | 41003 ft | 494 kts | 122° |
| 2026-04-29 03:50 | 42.94792 | 90.76470 | 41000 ft | 494 kts | 122° |
| 2026-04-29 03:50 | 42.91124 | 90.84369 | 40997 ft | 494 kts | 126° |
| 2026-04-29 03:51 | 42.86380 | 90.91106 | 41001 ft | 493 kts | 143° |
| 2026-04-29 03:51 | 42.80627 | 90.96051 | 41003 ft | 493 kts | 150° |
| 2026-04-29 03:52 | 42.74605 | 91.00671 | 41004 ft | 493 kts | 150° |
| 2026-04-29 03:52 | 42.68647 | 91.05198 | 41001 ft | 493 kts | 150° |
| 2026-04-29 03:53 | 42.62682 | 91.09771 | 41001 ft | 493 kts | 150° |
| 2026-04-29 03:53 | 42.56714 | 91.14367 | 40998 ft | 493 kts | 150° |
| 2026-04-29 03:54 | 42.50739 | 91.18962 | 41003 ft | 493 kts | 150° |
| 2026-04-29 03:54 | 42.44766 | 91.23545 | 40998 ft | 493 kts | 150° |
| 2026-04-29 03:55 | 42.38803 | 91.28108 | 41001 ft | 493 kts | 150° |
| 2026-04-29 03:55 | 42.32858 | 91.32646 | 40999 ft | 493 kts | 150° |
| 2026-04-29 03:56 | 42.26887 | 91.37194 | 40999 ft | 493 kts | 150° |
| 2026-04-29 03:56 | 42.20908 | 91.41739 | 40999 ft | 493 kts | 150° |
| 2026-04-29 03:57 | 42.14906 | 91.46291 | 41002 ft | 493 kts | 150° |
| 2026-04-29 03:57 | 42.08948 | 91.50799 | 40999 ft | 493 kts | 150° |
| 2026-04-29 03:58 | 42.02982 | 91.55305 | 41001 ft | 493 kts | 150° |
| 2026-04-29 03:58 | 41.96994 | 91.59816 | 40998 ft | 493 kts | 150° |
| 2026-04-29 03:59 | 41.91001 | 91.64322 | 41000 ft | 493 kts | 150° |
| 2026-04-29 03:59 | 41.85020 | 91.68810 | 40999 ft | 493 kts | 150° |
| 2026-04-29 04:00 | 41.79035 | 91.73290 | 40999 ft | 493 kts | 150° |
| 2026-04-29 04:00 | 41.73041 | 91.77767 | 41002 ft | 493 kts | 150° |
| 2026-04-29 04:01 | 41.67048 | 91.82231 | 40998 ft | 493 kts | 152° |
| 2026-04-29 04:01 | 41.60688 | 91.85522 | 41002 ft | 492 kts | 168° |
| 2026-04-29 04:02 | 41.53970 | 91.87018 | 41002 ft | 492 kts | 172° |
| 2026-04-29 04:02 | 41.47183 | 91.88198 | 41000 ft | 492 kts | 173° |
| 2026-04-29 04:03 | 41.40407 | 91.89349 | 41000 ft | 492 kts | 172° |
| 2026-04-29 04:03 | 41.33606 | 91.90539 | 41000 ft | 492 kts | 172° |
| 2026-04-29 04:04 | 41.26821 | 91.91744 | 41001 ft | 492 kts | 172° |
| 2026-04-29 04:04 | 41.20027 | 91.92952 | 41000 ft | 492 kts | 172° |
| 2026-04-29 04:05 | 41.13236 | 91.94156 | 41000 ft | 492 kts | 172° |
| 2026-04-29 04:05 | 41.06492 | 91.95348 | 41000 ft | 492 kts | 172° |
| 2026-04-29 04:06 | 40.99713 | 91.96544 | 41000 ft | 492 kts | 172° |
| 2026-04-29 04:06 | 40.92907 | 91.97741 | 41000 ft | 492 kts | 172° |
| 2026-04-29 04:07 | 40.86153 | 91.98927 | 41000 ft | 492 kts | 172° |
| 2026-04-29 04:07 | 40.79371 | 92.00116 | 41000 ft | 492 kts | 172° |
| 2026-04-29 04:08 | 40.72595 | 92.01301 | 41000 ft | 492 kts | 172° |
| 2026-04-29 04:08 | 40.65804 | 92.02486 | 41001 ft | 492 kts | 172° |
| 2026-04-29 04:09 | 40.59018 | 92.03668 | 41002 ft | 492 kts | 172° |
| 2026-04-29 04:09 | 40.52236 | 92.04847 | 41000 ft | 492 kts | 172° |
| 2026-04-29 04:10 | 40.45434 | 92.06026 | 41000 ft | 492 kts | 172° |
| 2026-04-29 04:10 | 40.38638 | 92.07202 | 41000 ft | 492 kts | 172° |
| 2026-04-29 04:11 | 40.31856 | 92.08374 | 40999 ft | 492 kts | 172° |
| 2026-04-29 04:11 | 40.25077 | 92.09543 | 41002 ft | 492 kts | 172° |
| 2026-04-29 04:12 | 40.18317 | 92.10706 | 41002 ft | 492 kts | 172° |
| 2026-04-29 04:12 | 40.11497 | 92.11877 | 40999 ft | 492 kts | 172° |
| 2026-04-29 04:13 | 40.04746 | 92.13034 | 40999 ft | 492 kts | 172° |
| 2026-04-29 04:13 | 39.97923 | 92.14201 | 40998 ft | 492 kts | 172° |
| 2026-04-29 04:14 | 39.91135 | 92.15359 | 40999 ft | 492 kts | 172° |
| 2026-04-29 04:14 | 39.84373 | 92.16512 | 40999 ft | 492 kts | 172° |
| 2026-04-29 04:15 | 39.77595 | 92.17664 | 41000 ft | 492 kts | 172° |
| 2026-04-29 04:15 | 39.70794 | 92.18838 | 41000 ft | 492 kts | 172° |
| 2026-04-29 04:16 | 39.64027 | 92.20071 | 41001 ft | 492 kts | 172° |
| 2026-04-29 04:16 | 39.57241 | 92.21311 | 41002 ft | 492 kts | 172° |
| 2026-04-29 04:17 | 39.50469 | 92.22538 | 41002 ft | 492 kts | 172° |
| 2026-04-29 04:17 | 39.43692 | 92.23757 | 40999 ft | 492 kts | 172° |
| 2026-04-29 04:18 | 39.36899 | 92.24975 | 41002 ft | 492 kts | 172° |
| 2026-04-29 04:18 | 39.30127 | 92.26188 | 41000 ft | 492 kts | 172° |
| 2026-04-29 04:19 | 39.23340 | 92.27401 | 41000 ft | 492 kts | 172° |
| 2026-04-29 04:19 | 39.16571 | 92.28608 | 41001 ft | 492 kts | 172° |
| 2026-04-29 04:20 | 39.09772 | 92.29820 | 40998 ft | 492 kts | 172° |
| 2026-04-29 04:20 | 39.03015 | 92.31118 | 41000 ft | 492 kts | 171° |
| 2026-04-29 04:21 | 38.96304 | 92.32603 | 41000 ft | 492 kts | 170° |
| 2026-04-29 04:21 | 38.89552 | 92.34125 | 41001 ft | 492 kts | 170° |
| 2026-04-29 04:22 | 38.82796 | 92.35625 | 41000 ft | 492 kts | 170° |
| 2026-04-29 04:22 | 38.76047 | 92.37107 | 41001 ft | 492 kts | 171° |
| 2026-04-29 04:23 | 38.69319 | 92.38567 | 40999 ft | 492 kts | 171° |
| 2026-04-29 04:23 | 38.62550 | 92.40036 | 41000 ft | 492 kts | 171° |
| 2026-04-29 04:24 | 38.55792 | 92.41510 | 41001 ft | 492 kts | 170° |
| 2026-04-29 04:24 | 38.49042 | 92.42990 | 41001 ft | 492 kts | 171° |
| 2026-04-29 04:25 | 38.42305 | 92.44459 | 41001 ft | 492 kts | 171° |
| 2026-04-29 04:25 | 38.35553 | 92.45923 | 41000 ft | 492 kts | 171° |
| 2026-04-29 04:26 | 38.28794 | 92.47384 | 40998 ft | 492 kts | 171° |
| 2026-04-29 04:26 | 38.22262 | 92.49680 | 41000 ft | 492 kts | 156° |
| 2026-04-29 04:27 | 38.16529 | 92.54396 | 41003 ft | 493 kts | 137° |
| 2026-04-29 04:27 | 38.12383 | 92.61275 | 41004 ft | 494 kts | 118° |
| 2026-04-29 04:28 | 38.09357 | 92.69119 | 41001 ft | 494 kts | 115° |
| 2026-04-29 04:28 | 38.06480 | 92.77050 | 40999 ft | 495 kts | 115° |
| 2026-04-29 04:29 | 38.03572 | 92.84968 | 41000 ft | 494 kts | 116° |
| 2026-04-29 04:29 | 38.00632 | 92.92842 | 40999 ft | 494 kts | 116° |
| 2026-04-29 04:30 | 37.97674 | 93.00704 | 41000 ft | 494 kts | 116° |
| 2026-04-29 04:31 | 37.93223 | 93.12493 | 40998 ft | 494 kts | 116° |
| 2026-04-29 04:31 | 37.90748 | 93.19031 | 41001 ft | 494 kts | 116° |
| 2026-04-29 04:32 | 37.87281 | 93.28171 | 41000 ft | 494 kts | 116° |
| 2026-04-29 04:32 | 37.84789 | 93.34725 | 40998 ft | 494 kts | 116° |
| 2026-04-29 04:33 | 37.81816 | 93.42524 | 40999 ft | 494 kts | 116° |
| 2026-04-29 04:33 | 37.78821 | 93.50362 | 40999 ft | 494 kts | 116° |
| 2026-04-29 04:34 | 37.75828 | 93.58172 | 40999 ft | 494 kts | 116° |
| 2026-04-29 04:34 | 37.72827 | 93.65987 | 41000 ft | 494 kts | 116° |
| 2026-04-29 04:35 | 37.69823 | 93.73788 | 40999 ft | 494 kts | 116° |
| 2026-04-29 04:35 | 37.66796 | 93.81628 | 40999 ft | 494 kts | 116° |
| 2026-04-29 04:36 | 37.63777 | 93.89430 | 40998 ft | 494 kts | 116° |
| 2026-04-29 04:36 | 37.60776 | 93.97163 | 41000 ft | 494 kts | 117° |
| 2026-04-29 04:37 | 37.57748 | 94.04947 | 41002 ft | 494 kts | 117° |
| 2026-04-29 04:37 | 37.54713 | 94.12732 | 41001 ft | 494 kts | 117° |
| 2026-04-29 04:38 | 37.51672 | 94.20512 | 41002 ft | 494 kts | 117° |
| 2026-04-29 04:38 | 37.48625 | 94.28285 | 40999 ft | 494 kts | 117° |
| 2026-04-29 04:39 | 37.45582 | 94.36030 | 41002 ft | 494 kts | 117° |
| 2026-04-29 04:39 | 37.42524 | 94.43796 | 41002 ft | 494 kts | 117° |
| 2026-04-29 04:40 | 37.39463 | 94.51547 | 41001 ft | 494 kts | 117° |
| 2026-04-29 04:40 | 37.36405 | 94.59274 | 41001 ft | 494 kts | 117° |
| 2026-04-29 04:41 | 37.33348 | 94.66979 | 40999 ft | 494 kts | 117° |
| 2026-04-29 04:41 | 37.30276 | 94.74705 | 41001 ft | 494 kts | 117° |
| 2026-04-29 04:42 | 37.27195 | 94.82433 | 40998 ft | 494 kts | 117° |
| 2026-04-29 04:42 | 37.24116 | 94.90137 | 41000 ft | 494 kts | 117° |
| 2026-04-29 04:43 | 37.21023 | 94.97856 | 40999 ft | 494 kts | 117° |
| 2026-04-29 04:43 | 37.17928 | 95.05561 | 40999 ft | 494 kts | 117° |
| 2026-04-29 04:44 | 37.14831 | 95.13253 | 41004 ft | 494 kts | 117° |
| 2026-04-29 04:44 | 37.11722 | 95.20957 | 40998 ft | 494 kts | 117° |
| 2026-04-29 04:45 | 37.08619 | 95.28629 | 41000 ft | 494 kts | 117° |
| 2026-04-29 04:45 | 37.05509 | 95.36296 | 40998 ft | 494 kts | 117° |
| 2026-04-29 04:46 | 37.02381 | 95.43991 | 41003 ft | 494 kts | 117° |
| 2026-04-29 04:46 | 36.99284 | 95.51595 | 41000 ft | 494 kts | 117° |
| 2026-04-29 04:47 | 36.96233 | 95.59305 | 41001 ft | 494 kts | 116° |
| 2026-04-29 04:47 | 36.93218 | 95.67025 | 41002 ft | 494 kts | 117° |
| 2026-04-29 04:48 | 36.90184 | 95.74748 | 41003 ft | 494 kts | 117° |
| 2026-04-29 04:48 | 36.87148 | 95.82426 | 41002 ft | 494 kts | 117° |
| 2026-04-29 04:49 | 36.84091 | 95.90126 | 41001 ft | 494 kts | 117° |
| 2026-04-29 04:49 | 36.81029 | 95.97820 | 41002 ft | 494 kts | 117° |
| 2026-04-29 04:50 | 36.77967 | 96.05502 | 40999 ft | 494 kts | 117° |
| 2026-04-29 04:50 | 36.74921 | 96.13182 | 40997 ft | 494 kts | 117° |
| 2026-04-29 04:51 | 36.71878 | 96.20869 | 41000 ft | 494 kts | 117° |
| 2026-04-29 04:51 | 36.68826 | 96.28562 | 40999 ft | 494 kts | 117° |
| 2026-04-29 04:52 | 36.65787 | 96.36198 | 40998 ft | 494 kts | 117° |
| 2026-04-29 04:52 | 36.62711 | 96.43908 | 40999 ft | 494 kts | 117° |
| 2026-04-29 04:53 | 36.59648 | 96.51565 | 41002 ft | 494 kts | 117° |
| 2026-04-29 04:53 | 36.56592 | 96.59187 | 41002 ft | 494 kts | 117° |
| 2026-04-29 04:54 | 36.53555 | 96.66866 | 41000 ft | 494 kts | 116° |
| 2026-04-29 04:54 | 36.50545 | 96.74552 | 41001 ft | 494 kts | 116° |
| 2026-04-29 04:55 | 36.47531 | 96.82218 | 41002 ft | 494 kts | 117° |
| 2026-04-29 04:55 | 36.44500 | 96.89891 | 41003 ft | 494 kts | 117° |
| 2026-04-29 04:56 | 36.41464 | 96.97550 | 41003 ft | 494 kts | 117° |
| 2026-04-29 04:56 | 36.38422 | 97.05211 | 41003 ft | 494 kts | 117° |
| 2026-04-29 04:57 | 36.35376 | 97.12862 | 40999 ft | 494 kts | 117° |
| 2026-04-29 04:57 | 36.32317 | 97.20528 | 40999 ft | 494 kts | 117° |
| 2026-04-29 04:58 | 36.29269 | 97.28147 | 41000 ft | 494 kts | 117° |
| 2026-04-29 04:58 | 36.26208 | 97.35778 | 41000 ft | 494 kts | 117° |
| 2026-04-29 04:59 | 36.23137 | 97.43419 | 41000 ft | 494 kts | 117° |
| 2026-04-29 04:59 | 36.20089 | 97.50987 | 41000 ft | 494 kts | 117° |
| 2026-04-29 05:00 | 36.16604 | 97.58282 | 41000 ft | 494 kts | 128° |
| 2026-04-29 05:00 | 36.11592 | 97.64013 | 41001 ft | 493 kts | 147° |
| 2026-04-29 05:00 | 36.08558 | 97.66005 | 41001 ft | 492 kts | 158° |
| 2026-04-29 05:01 | 36.05357 | 97.67492 | 41001 ft | 492 kts | 161° |
| 2026-04-29 05:01 | 35.98838 | 97.70111 | 41000 ft | 492 kts | 162° |
| 2026-04-29 05:02 | 35.92303 | 97.72633 | 41000 ft | 492 kts | 162° |
| 2026-04-29 05:02 | 35.85764 | 97.75203 | 41000 ft | 492 kts | 162° |
| 2026-04-29 05:03 | 35.79243 | 97.77800 | 41001 ft | 492 kts | 162° |
| 2026-04-29 05:03 | 35.72727 | 97.80401 | 41000 ft | 492 kts | 162° |
| 2026-04-29 05:04 | 35.66212 | 97.82997 | 40999 ft | 492 kts | 162° |
| 2026-04-29 05:04 | 35.59696 | 97.85586 | 40998 ft | 492 kts | 162° |
| 2026-04-29 05:05 | 35.53208 | 97.88159 | 41001 ft | 492 kts | 162° |
| 2026-04-29 05:05 | 35.46682 | 97.90742 | 40999 ft | 492 kts | 162° |
| 2026-04-29 05:06 | 35.40178 | 97.93313 | 40999 ft | 492 kts | 162° |
| 2026-04-29 05:06 | 35.33637 | 97.95894 | 41001 ft | 492 kts | 162° |
| 2026-04-29 05:07 | 35.27117 | 97.98461 | 41001 ft | 492 kts | 162° |
| 2026-04-29 05:07 | 35.20603 | 98.01023 | 41004 ft | 492 kts | 162° |
| 2026-04-29 05:08 | 35.14081 | 98.03583 | 41000 ft | 492 kts | 162° |
| 2026-04-29 05:08 | 35.07556 | 98.06140 | 41000 ft | 492 kts | 162° |
| 2026-04-29 05:09 | 35.01029 | 98.08693 | 41000 ft | 492 kts | 162° |
| 2026-04-29 05:09 | 34.94494 | 98.11244 | 41000 ft | 492 kts | 162° |
| 2026-04-29 05:10 | 34.87978 | 98.13786 | 41000 ft | 492 kts | 162° |
| 2026-04-29 05:10 | 34.81433 | 98.16333 | 41002 ft | 492 kts | 162° |
| 2026-04-29 05:11 | 34.74912 | 98.18867 | 41001 ft | 492 kts | 162° |
| 2026-04-29 05:11 | 34.68385 | 98.21399 | 40998 ft | 492 kts | 162° |
| 2026-04-29 05:12 | 34.61875 | 98.23921 | 40998 ft | 492 kts | 162° |
| 2026-04-29 05:12 | 34.55346 | 98.26446 | 41000 ft | 492 kts | 162° |
| 2026-04-29 05:13 | 34.48858 | 98.28951 | 41000 ft | 492 kts | 162° |
| 2026-04-29 05:13 | 34.42313 | 98.31473 | 40999 ft | 492 kts | 162° |
| 2026-04-29 05:14 | 34.35797 | 98.33980 | 40999 ft | 492 kts | 162° |
| 2026-04-29 05:14 | 34.29260 | 98.36492 | 41000 ft | 492 kts | 162° |
| 2026-04-29 05:15 | 34.22726 | 98.38997 | 41000 ft | 492 kts | 162° |
| 2026-04-29 05:15 | 34.16205 | 98.41494 | 41001 ft | 492 kts | 162° |
| 2026-04-29 05:16 | 34.09672 | 98.43991 | 41000 ft | 492 kts | 162° |
| 2026-04-29 05:16 | 34.03172 | 98.46473 | 41000 ft | 492 kts | 162° |
| 2026-04-29 05:17 | 33.96640 | 98.48962 | 41000 ft | 492 kts | 162° |
| 2026-04-29 05:17 | 33.90114 | 98.51445 | 40999 ft | 492 kts | 162° |
| 2026-04-29 05:18 | 33.83584 | 98.53925 | 41002 ft | 492 kts | 162° |
| 2026-04-29 05:18 | 33.77049 | 98.56403 | 41003 ft | 492 kts | 162° |
| 2026-04-29 05:19 | 33.71621 | 98.58458 | 41003 ft | 492 kts | 162° |
| 2026-04-29 05:19 | 33.65074 | 98.60935 | 41001 ft | 492 kts | 162° |
| 2026-04-29 05:20 | 33.58526 | 98.63406 | 41000 ft | 492 kts | 162° |
| 2026-04-29 05:20 | 33.52007 | 98.65863 | 40997 ft | 492 kts | 162° |
| 2026-04-29 05:21 | 33.44370 | 98.68735 | 40999 ft | 492 kts | 162° |
| 2026-04-29 05:21 | 33.38925 | 98.70781 | 41002 ft | 492 kts | 162° |
| 2026-04-29 05:22 | 33.32383 | 98.73235 | 41000 ft | 492 kts | 162° |
| 2026-04-29 05:22 | 33.25837 | 98.75687 | 40998 ft | 492 kts | 162° |
| 2026-04-29 05:23 | 33.19313 | 98.78127 | 41000 ft | 492 kts | 162° |
| 2026-04-29 05:23 | 33.12783 | 98.80565 | 41000 ft | 492 kts | 162° |
| 2026-04-29 05:24 | 33.06234 | 98.83006 | 40999 ft | 492 kts | 162° |
| 2026-04-29 05:24 | 32.99703 | 98.85436 | 41001 ft | 492 kts | 162° |
| 2026-04-29 05:25 | 32.93196 | 98.87855 | 41001 ft | 492 kts | 162° |
| 2026-04-29 05:25 | 32.86607 | 98.90299 | 41002 ft | 492 kts | 162° |
| 2026-04-29 05:26 | 32.80117 | 98.92704 | 41000 ft | 492 kts | 162° |
| 2026-04-29 05:26 | 32.73570 | 98.95126 | 41000 ft | 492 kts | 162° |
| 2026-04-29 05:27 | 32.67027 | 98.97558 | 41000 ft | 492 kts | 162° |
| 2026-04-29 05:27 | 32.60908 | 99.01120 | 41001 ft | 493 kts | 145° |
| 2026-04-29 05:27 | 32.58257 | 99.03724 | 41000 ft | 493 kts | 135° |
| 2026-04-29 05:28 | 32.53967 | 99.10054 | 41000 ft | 494 kts | 126° |
| 2026-04-29 05:28 | 32.50024 | 99.16731 | 40999 ft | 494 kts | 125° |
| 2026-04-29 05:29 | 32.46116 | 99.23413 | 41001 ft | 494 kts | 126° |
| 2026-04-29 05:29 | 32.42186 | 99.30038 | 41000 ft | 494 kts | 126° |
| 2026-04-29 05:30 | 32.38194 | 99.36707 | 41002 ft | 494 kts | 126° |
| 2026-04-29 05:30 | 32.34232 | 99.43304 | 40999 ft | 494 kts | 126° |
| 2026-04-29 05:31 | 32.30256 | 99.49917 | 41002 ft | 494 kts | 126° |
| 2026-04-29 05:31 | 32.26261 | 99.56550 | 40999 ft | 494 kts | 126° |
| 2026-04-29 05:32 | 32.22279 | 99.63150 | 40998 ft | 494 kts | 126° |
| 2026-04-29 05:32 | 32.18290 | 99.69751 | 40998 ft | 494 kts | 126° |
| 2026-04-29 05:33 | 32.14287 | 99.76365 | 41003 ft | 494 kts | 126° |
| 2026-04-29 05:33 | 32.10313 | 99.82917 | 41001 ft | 494 kts | 126° |
| 2026-04-29 05:34 | 32.06315 | 99.89485 | 41003 ft | 494 kts | 127° |
| 2026-04-29 05:34 | 32.01555 | 99.95294 | 41002 ft | 493 kts | 143° |
| 2026-04-29 05:35 | 31.95487 | 99.99032 | 41000 ft | 492 kts | 163° |
| 2026-04-29 05:35 | 31.88781 | 100.00176 | 41002 ft | 491 kts | 178° |
| 2026-04-29 05:36 | 31.81928 | 100.00209 | 41001 ft | 492 kts | 180° |
| 2026-04-29 05:36 | 31.75088 | 100.00119 | 40999 ft | 492 kts | 180° |
| 2026-04-29 05:37 | 31.68250 | 100.00073 | 41000 ft | 492 kts | 180° |
| 2026-04-29 05:37 | 31.61399 | 100.00064 | 41000 ft | 492 kts | 180° |
| 2026-04-29 05:38 | 31.54571 | 100.00067 | 41000 ft | 492 kts | 180° |
| 2026-04-29 05:38 | 31.47725 | 100.00070 | 41000 ft | 492 kts | 180° |
| 2026-04-29 05:39 | 31.40888 | 100.00071 | 40998 ft | 492 kts | 180° |
| 2026-04-29 05:39 | 31.34072 | 100.00071 | 41003 ft | 492 kts | 180° |
| 2026-04-29 05:40 | 31.27197 | 100.00071 | 41001 ft | 492 kts | 180° |
| 2026-04-29 05:40 | 31.20391 | 100.00071 | 41000 ft | 492 kts | 180° |
| 2026-04-29 05:41 | 31.13556 | 100.00070 | 41000 ft | 492 kts | 180° |
| 2026-04-29 05:41 | 31.06724 | 100.00071 | 40999 ft | 492 kts | 180° |
| 2026-04-29 05:42 | 30.99879 | 100.00071 | 41001 ft | 492 kts | 180° |
| 2026-04-29 05:42 | 30.93022 | 100.00071 | 41000 ft | 492 kts | 180° |
| 2026-04-29 05:43 | 30.86193 | 100.00077 | 41000 ft | 492 kts | 180° |
| 2026-04-29 05:43 | 30.79336 | 100.00073 | 41001 ft | 492 kts | 180° |
| 2026-04-29 05:44 | 30.72510 | 100.00071 | 41000 ft | 492 kts | 180° |
| 2026-04-29 05:44 | 30.65668 | 100.00070 | 41002 ft | 492 kts | 180° |
| 2026-04-29 05:45 | 30.58810 | 100.00070 | 41001 ft | 492 kts | 180° |
| 2026-04-29 05:45 | 30.51964 | 100.00070 | 41001 ft | 492 kts | 180° |
| 2026-04-29 05:46 | 30.45127 | 100.00070 | 41000 ft | 492 kts | 180° |
| 2026-04-29 05:46 | 30.38292 | 100.00070 | 40999 ft | 491 kts | 180° |
| 2026-04-29 05:47 | 30.31445 | 100.00070 | 41002 ft | 492 kts | 180° |
| 2026-04-29 05:47 | 30.24649 | 100.00078 | 41001 ft | 492 kts | 180° |
| 2026-04-29 05:48 | 30.17771 | 100.00078 | 41005 ft | 492 kts | 180° |
| 2026-04-29 05:48 | 30.10964 | 100.00073 | 41002 ft | 492 kts | 180° |
| 2026-04-29 05:49 | 30.04123 | 100.00071 | 41000 ft | 492 kts | 180° |
| 2026-04-29 05:49 | 29.97272 | 100.00069 | 41003 ft | 492 kts | 180° |
| 2026-04-29 05:50 | 29.90440 | 100.00069 | 40999 ft | 492 kts | 180° |
| 2026-04-29 05:50 | 29.83646 | 100.00070 | 41001 ft | 492 kts | 180° |
| 2026-04-29 05:51 | 29.76731 | 100.00070 | 41001 ft | 492 kts | 180° |
| 2026-04-29 05:51 | 29.69884 | 100.00069 | 41001 ft | 492 kts | 180° |
| 2026-04-29 05:52 | 29.63088 | 100.00068 | 41000 ft | 491 kts | 180° |
| 2026-04-29 05:52 | 29.56206 | 100.00068 | 41000 ft | 492 kts | 180° |
| 2026-04-29 05:53 | 29.49414 | 100.00068 | 40999 ft | 492 kts | 180° |
| 2026-04-29 05:53 | 29.42563 | 100.00069 | 40998 ft | 492 kts | 180° |
| 2026-04-29 05:54 | 29.35724 | 100.00068 | 41000 ft | 492 kts | 180° |
| 2026-04-29 05:54 | 29.28880 | 100.00068 | 41001 ft | 492 kts | 180° |
| 2026-04-29 05:55 | 29.22041 | 100.00068 | 41002 ft | 492 kts | 180° |
| 2026-04-29 05:55 | 29.15188 | 100.00067 | 40999 ft | 492 kts | 180° |
| 2026-04-29 05:56 | 29.08391 | 100.00067 | 41002 ft | 492 kts | 180° |
| 2026-04-29 05:56 | 29.01498 | 100.00068 | 41000 ft | 492 kts | 180° |
| 2026-04-29 05:57 | 28.94707 | 100.00069 | 40999 ft | 492 kts | 180° |
| 2026-04-29 05:57 | 28.87858 | 100.00068 | 41000 ft | 492 kts | 180° |
| 2026-04-29 05:58 | 28.81017 | 100.00067 | 41003 ft | 492 kts | 180° |
| 2026-04-29 05:58 | 28.74183 | 100.00068 | 41000 ft | 492 kts | 180° |
| 2026-04-29 05:59 | 28.67336 | 100.00068 | 40999 ft | 492 kts | 180° |
| 2026-04-29 05:59 | 28.60483 | 100.00068 | 41000 ft | 492 kts | 180° |
| 2026-04-29 06:00 | 28.53644 | 100.00068 | 41002 ft | 492 kts | 180° |
| 2026-04-29 06:00 | 28.46802 | 100.00067 | 41001 ft | 492 kts | 180° |
| 2026-04-29 06:01 | 28.39954 | 100.00067 | 41001 ft | 492 kts | 180° |
| 2026-04-29 06:01 | 28.33115 | 100.00068 | 40999 ft | 492 kts | 180° |
| 2026-04-29 06:02 | 28.26313 | 100.00067 | 40999 ft | 491 kts | 180° |
| 2026-04-29 06:02 | 28.19494 | 100.00068 | 40997 ft | 492 kts | 180° |
| 2026-04-29 06:03 | 28.12641 | 100.00068 | 41000 ft | 492 kts | 180° |
| 2026-04-29 06:03 | 28.05794 | 100.00067 | 40999 ft | 492 kts | 180° |
| 2026-04-29 06:04 | 27.98956 | 100.00067 | 41000 ft | 492 kts | 180° |
| 2026-04-29 06:04 | 27.92113 | 100.00070 | 41000 ft | 492 kts | 180° |
| 2026-04-29 06:05 | 27.85273 | 100.00070 | 41004 ft | 492 kts | 180° |
| 2026-04-29 06:05 | 27.78420 | 100.00068 | 41000 ft | 492 kts | 180° |
| 2026-04-29 06:06 | 27.71598 | 100.00067 | 41000 ft | 492 kts | 180° |
| 2026-04-29 06:06 | 27.64746 | 100.00066 | 41001 ft | 492 kts | 180° |
| 2026-04-29 06:07 | 27.59062 | 100.00066 | 40999 ft | 492 kts | 180° |
| 2026-04-29 06:07 | 27.52220 | 100.00067 | 41001 ft | 492 kts | 180° |
| 2026-04-29 06:08 | 27.45368 | 100.00068 | 41000 ft | 492 kts | 180° |
| 2026-04-29 06:08 | 27.37377 | 100.00079 | 41004 ft | 492 kts | 180° |
| 2026-04-29 06:09 | 27.31692 | 100.00074 | 40998 ft | 492 kts | 180° |
| 2026-04-29 06:09 | 27.24844 | 100.00068 | 41002 ft | 491 kts | 180° |
| 2026-04-29 06:10 | 27.18011 | 100.00066 | 41000 ft | 491 kts | 180° |
| 2026-04-29 06:10 | 27.11183 | 100.00066 | 41001 ft | 492 kts | 180° |
| 2026-04-29 06:11 | 27.04362 | 100.00066 | 41001 ft | 492 kts | 180° |
| 2026-04-29 06:11 | 26.97529 | 100.00066 | 41001 ft | 492 kts | 180° |
| 2026-04-29 06:12 | 26.90695 | 100.00067 | 41001 ft | 492 kts | 180° |
| 2026-04-29 06:12 | 26.83851 | 100.00068 | 41001 ft | 492 kts | 180° |
| 2026-04-29 06:13 | 26.76990 | 100.00067 | 41001 ft | 492 kts | 180° |
| 2026-04-29 06:13 | 26.70151 | 100.00067 | 41002 ft | 492 kts | 180° |
| 2026-04-29 06:14 | 26.63308 | 100.00067 | 41000 ft | 492 kts | 180° |
| 2026-04-29 06:14 | 26.56464 | 100.00067 | 40998 ft | 492 kts | 180° |
| 2026-04-29 06:15 | 26.49664 | 100.00067 | 41001 ft | 492 kts | 180° |
| 2026-04-29 06:15 | 26.42824 | 100.00068 | 41001 ft | 492 kts | 180° |
| 2026-04-29 06:16 | 26.35976 | 100.00068 | 40999 ft | 492 kts | 180° |
| 2026-04-29 06:16 | 26.29148 | 100.00067 | 41001 ft | 492 kts | 180° |
| 2026-04-29 06:17 | 26.22308 | 100.00067 | 41000 ft | 492 kts | 180° |
| 2026-04-29 06:17 | 26.15451 | 100.00067 | 40999 ft | 492 kts | 180° |
| 2026-04-29 06:18 | 26.08610 | 100.00066 | 40999 ft | 492 kts | 180° |
| 2026-04-29 06:18 | 26.01762 | 100.00066 | 41001 ft | 492 kts | 180° |
| 2026-04-29 06:19 | 25.94960 | 100.00786 | 41005 ft | 492 kts | 168° |
| 2026-04-29 06:19 | 25.88302 | 100.02612 | 40998 ft | 492 kts | 165° |
| 2026-04-29 06:20 | 25.81753 | 100.04647 | 41001 ft | 492 kts | 165° |
| 2026-04-29 06:20 | 25.75160 | 100.06719 | 41001 ft | 492 kts | 165° |
| 2026-04-29 06:21 | 25.68574 | 100.08762 | 41003 ft | 492 kts | 165° |
| 2026-04-29 06:21 | 25.62150 | 100.10737 | 41001 ft | 492 kts | 165° |
| 2026-04-29 06:22 | 25.55601 | 100.12746 | 41001 ft | 492 kts | 165° |
| 2026-04-29 06:22 | 25.48993 | 100.14771 | 40999 ft | 492 kts | 165° |
| 2026-04-29 06:23 | 25.42400 | 100.16790 | 41000 ft | 492 kts | 165° |
| 2026-04-29 06:23 | 25.35785 | 100.18814 | 41000 ft | 492 kts | 165° |
| 2026-04-29 06:24 | 25.29173 | 100.20835 | 41000 ft | 492 kts | 165° |
| 2026-04-29 06:24 | 25.22577 | 100.22848 | 41000 ft | 492 kts | 165° |
| 2026-04-29 06:25 | 25.15965 | 100.24863 | 41001 ft | 492 kts | 165° |
| 2026-04-29 06:25 | 25.09357 | 100.26862 | 41001 ft | 492 kts | 166° |
| 2026-04-29 06:26 | 25.02787 | 100.28789 | 41002 ft | 492 kts | 166° |
| 2026-04-29 06:26 | 24.96159 | 100.30745 | 40999 ft | 492 kts | 165° |
| 2026-04-29 06:27 | 24.89786 | 100.32637 | 40998 ft | 492 kts | 165° |
| 2026-04-29 06:27 | 24.83178 | 100.34601 | 40999 ft | 492 kts | 165° |
| 2026-04-29 06:28 | 24.76570 | 100.36563 | 41000 ft | 492 kts | 165° |
| 2026-04-29 06:29 | 24.63596 | 100.40405 | 41003 ft | 492 kts | 165° |
| 2026-04-29 06:29 | 24.56987 | 100.42360 | 41001 ft | 492 kts | 165° |
| 2026-04-29 06:30 | 24.47060 | 100.45295 | 41001 ft | 492 kts | 166° |
| 2026-04-29 06:31 | 24.40447 | 100.47233 | 41000 ft | 492 kts | 166° |
| 2026-04-29 06:31 | 24.33841 | 100.49170 | 41001 ft | 492 kts | 166° |
| 2026-04-29 06:32 | 24.27204 | 100.51116 | 41000 ft | 492 kts | 166° |
| 2026-04-29 06:32 | 24.20648 | 100.53039 | 40999 ft | 492 kts | 166° |
| 2026-04-29 06:33 | 24.14022 | 100.54979 | 41001 ft | 492 kts | 166° |
| 2026-04-29 06:33 | 24.07395 | 100.56919 | 41001 ft | 492 kts | 166° |
| 2026-04-29 06:34 | 24.00778 | 100.58869 | 41001 ft | 492 kts | 165° |
| 2026-04-29 06:34 | 23.94167 | 100.60818 | 40998 ft | 492 kts | 165° |
| 2026-04-29 06:35 | 23.87548 | 100.62765 | 40997 ft | 492 kts | 165° |
| 2026-04-29 06:35 | 23.80948 | 100.64701 | 41000 ft | 492 kts | 165° |
| 2026-04-29 06:36 | 23.74321 | 100.66644 | 41001 ft | 492 kts | 166° |
| 2026-04-29 06:36 | 23.67748 | 100.68568 | 41000 ft | 492 kts | 166° |
| 2026-04-29 06:37 | 23.61092 | 100.70515 | 41001 ft | 492 kts | 166° |
| 2026-04-29 06:37 | 23.54515 | 100.72437 | 41002 ft | 492 kts | 166° |
| 2026-04-29 06:38 | 23.47895 | 100.74369 | 41000 ft | 492 kts | 166° |
| 2026-04-29 06:38 | 23.41281 | 100.76299 | 41002 ft | 492 kts | 166° |
| 2026-04-29 06:39 | 23.34665 | 100.78226 | 41001 ft | 492 kts | 166° |
| 2026-04-29 06:39 | 23.28060 | 100.80148 | 41000 ft | 492 kts | 166° |
| 2026-04-29 06:40 | 23.21437 | 100.82073 | 41000 ft | 492 kts | 166° |
| 2026-04-29 06:40 | 23.14820 | 100.83994 | 41000 ft | 492 kts | 166° |
| 2026-04-29 06:41 | 23.08203 | 100.85914 | 41001 ft | 492 kts | 166° |
| 2026-04-29 06:41 | 23.01575 | 100.87836 | 40997 ft | 492 kts | 166° |
| 2026-04-29 06:42 | 22.95001 | 100.89739 | 41001 ft | 492 kts | 166° |
| 2026-04-29 06:42 | 22.88350 | 100.91663 | 40999 ft | 492 kts | 166° |
| 2026-04-29 06:43 | 22.81759 | 100.93566 | 41002 ft | 492 kts | 166° |
| 2026-04-29 06:43 | 22.75150 | 100.95475 | 41000 ft | 492 kts | 166° |
| 2026-04-29 06:44 | 22.68657 | 100.97818 | 41001 ft | 492 kts | 159° |
| 2026-04-29 06:44 | 22.62274 | 101.00551 | 41001 ft | 492 kts | 159° |
| 2026-04-29 06:45 | 22.55920 | 101.03331 | 41000 ft | 492 kts | 159° |
| 2026-04-29 06:45 | 22.49570 | 101.06103 | 40998 ft | 492 kts | 159° |
| 2026-04-29 06:46 | 22.43206 | 101.08867 | 41000 ft | 492 kts | 159° |
| 2026-04-29 06:46 | 22.36849 | 101.11621 | 40999 ft | 492 kts | 159° |
| 2026-04-29 06:47 | 22.30488 | 101.14375 | 40999 ft | 492 kts | 159° |
| 2026-04-29 06:47 | 22.24122 | 101.17128 | 40999 ft | 492 kts | 159° |
| 2026-04-29 06:48 | 22.17759 | 101.19877 | 41000 ft | 492 kts | 159° |
| 2026-04-29 06:48 | 22.11440 | 101.22604 | 41000 ft | 492 kts | 159° |
| 2026-04-29 06:49 | 22.05084 | 101.25345 | 41001 ft | 492 kts | 159° |
| 2026-04-29 06:49 | 21.98716 | 101.28087 | 41001 ft | 492 kts | 159° |
| 2026-04-29 06:50 | 21.92356 | 101.30825 | 40999 ft | 492 kts | 159° |
| 2026-04-29 06:50 | 21.85980 | 101.33576 | 41000 ft | 492 kts | 159° |
| 2026-04-29 06:51 | 21.79638 | 101.36311 | 41003 ft | 492 kts | 159° |
| 2026-04-29 06:51 | 21.73264 | 101.39058 | 40998 ft | 492 kts | 159° |
| 2026-04-29 06:52 | 21.66895 | 101.41800 | 41000 ft | 492 kts | 159° |
| 2026-04-29 06:52 | 21.60529 | 101.44538 | 40999 ft | 492 kts | 159° |
| 2026-04-29 06:53 | 21.54168 | 101.47271 | 41001 ft | 492 kts | 159° |
| 2026-04-29 06:53 | 21.47844 | 101.49986 | 40999 ft | 492 kts | 159° |
| 2026-04-29 06:54 | 21.41473 | 101.52717 | 40998 ft | 492 kts | 159° |
| 2026-04-29 06:54 | 21.35095 | 101.55449 | 41000 ft | 492 kts | 159° |
| 2026-04-29 06:55 | 21.28737 | 101.58171 | 40999 ft | 492 kts | 159° |
| 2026-04-29 06:55 | 21.22372 | 101.60892 | 41003 ft | 492 kts | 159° |
| 2026-04-29 06:56 | 21.16010 | 101.63617 | 41000 ft | 492 kts | 159° |
| 2026-04-29 06:56 | 21.09688 | 101.66348 | 41000 ft | 492 kts | 159° |
| 2026-04-29 06:57 | 21.03328 | 101.69097 | 40998 ft | 492 kts | 159° |
| 2026-04-29 06:57 | 20.96971 | 101.71841 | 41000 ft | 492 kts | 159° |
| 2026-04-29 06:58 | 20.90621 | 101.74576 | 41001 ft | 492 kts | 159° |
| 2026-04-29 06:58 | 20.84264 | 101.77311 | 41001 ft | 492 kts | 159° |
| 2026-04-29 06:59 | 20.77898 | 101.80048 | 40998 ft | 492 kts | 159° |
| 2026-04-29 06:59 | 20.71551 | 101.82774 | 40999 ft | 492 kts | 159° |
| 2026-04-29 07:00 | 20.65186 | 101.85504 | 41001 ft | 492 kts | 159° |
| 2026-04-29 07:00 | 20.58835 | 101.88227 | 41002 ft | 492 kts | 159° |
| 2026-04-29 07:01 | 20.52479 | 101.90950 | 41001 ft | 492 kts | 159° |
| 2026-04-29 07:01 | 20.46137 | 101.93664 | 41000 ft | 492 kts | 159° |
| 2026-04-29 07:02 | 20.39769 | 101.96387 | 40999 ft | 492 kts | 159° |
| 2026-04-29 07:02 | 20.33417 | 101.99101 | 41003 ft | 492 kts | 159° |
| 2026-04-29 07:03 | 20.27056 | 102.01815 | 41001 ft | 492 kts | 159° |
| 2026-04-29 07:03 | 20.20689 | 102.04530 | 41001 ft | 492 kts | 159° |
| 2026-04-29 07:04 | 20.15394 | 102.06786 | 40999 ft | 492 kts | 159° |
| 2026-04-29 07:04 | 20.07953 | 102.09955 | 40998 ft | 492 kts | 159° |
| 2026-04-29 07:05 | 20.01590 | 102.12662 | 41000 ft | 492 kts | 159° |
| 2026-04-29 07:05 | 19.96412 | 102.14777 | 40998 ft | 492 kts | 162° |
| 2026-04-29 07:06 | 19.89650 | 102.15955 | 40998 ft | 491 kts | 180° |
| 2026-04-29 07:06 | 19.82944 | 102.14835 | 40998 ft | 491 kts | 194° |
| 2026-04-29 07:07 | 19.76350 | 102.12844 | 40999 ft | 491 kts | 196° |
| 2026-04-29 07:07 | 19.69787 | 102.10770 | 41001 ft | 491 kts | 196° |
| 2026-04-29 07:08 | 19.63274 | 102.08744 | 40999 ft | 491 kts | 196° |
| 2026-04-29 07:08 | 19.56715 | 102.06734 | 40999 ft | 491 kts | 196° |
| 2026-04-29 07:09 | 19.50132 | 102.04727 | 40999 ft | 491 kts | 196° |
| 2026-04-29 07:09 | 19.43566 | 102.02727 | 40999 ft | 491 kts | 196° |
| 2026-04-29 07:10 | 19.37002 | 102.00727 | 41000 ft | 491 kts | 196° |
| 2026-04-29 07:10 | 19.30428 | 101.98726 | 41001 ft | 491 kts | 196° |
| 2026-04-29 07:11 | 19.23873 | 101.96732 | 40998 ft | 491 kts | 196° |
| 2026-04-29 07:11 | 19.17286 | 101.94730 | 40999 ft | 491 kts | 196° |
| 2026-04-29 07:12 | 19.10716 | 101.92734 | 40998 ft | 491 kts | 195° |
| 2026-04-29 07:12 | 19.04160 | 101.90745 | 40999 ft | 491 kts | 195° |
| 2026-04-29 07:13 | 18.97577 | 101.88750 | 40998 ft | 491 kts | 195° |
| 2026-04-29 07:13 | 18.91042 | 101.86770 | 41000 ft | 491 kts | 195° |
| 2026-04-29 07:14 | 18.84470 | 101.84781 | 40998 ft | 491 kts | 195° |
| 2026-04-29 07:14 | 18.77904 | 101.82795 | 41000 ft | 491 kts | 195° |
| 2026-04-29 07:15 | 18.71324 | 101.80806 | 41000 ft | 491 kts | 195° |
| 2026-04-29 07:15 | 18.64763 | 101.78825 | 41000 ft | 491 kts | 195° |
| 2026-04-29 07:16 | 18.58195 | 101.76844 | 41001 ft | 491 kts | 195° |
| 2026-04-29 07:16 | 18.51619 | 101.74861 | 41000 ft | 491 kts | 195° |
| 2026-04-29 07:17 | 18.45042 | 101.72880 | 41000 ft | 491 kts | 195° |
| 2026-04-29 07:17 | 18.38477 | 101.70905 | 41003 ft | 491 kts | 195° |
| 2026-04-29 07:18 | 18.31899 | 101.68927 | 41000 ft | 491 kts | 195° |
| 2026-04-29 07:18 | 18.25338 | 101.66955 | 40998 ft | 491 kts | 195° |
| 2026-04-29 07:19 | 18.18747 | 101.64976 | 41000 ft | 491 kts | 195° |
| 2026-04-29 07:19 | 18.12218 | 101.63017 | 40999 ft | 491 kts | 195° |
| 2026-04-29 07:20 | 18.05609 | 101.61035 | 40999 ft | 491 kts | 195° |
| 2026-04-29 07:20 | 17.99077 | 101.59079 | 41000 ft | 491 kts | 195° |
| 2026-04-29 07:21 | 17.92501 | 101.57110 | 41003 ft | 491 kts | 195° |
| 2026-04-29 07:21 | 17.85927 | 101.55144 | 41002 ft | 491 kts | 195° |
| 2026-04-29 07:22 | 17.79348 | 101.53178 | 41001 ft | 491 kts | 195° |
| 2026-04-29 07:22 | 17.72771 | 101.51215 | 40998 ft | 491 kts | 195° |
| 2026-04-29 07:23 | 17.66196 | 101.49244 | 41002 ft | 491 kts | 196° |
| 2026-04-29 07:23 | 17.59642 | 101.47264 | 40999 ft | 491 kts | 196° |
| 2026-04-29 07:24 | 17.53070 | 101.45282 | 40999 ft | 491 kts | 196° |
| 2026-04-29 07:24 | 17.46507 | 101.43308 | 40999 ft | 491 kts | 195° |
| 2026-04-29 07:25 | 17.39971 | 101.41346 | 40999 ft | 491 kts | 195° |
| 2026-04-29 07:25 | 17.33417 | 101.39380 | 40999 ft | 491 kts | 195° |
| 2026-04-29 07:26 | 17.26830 | 101.37408 | 41001 ft | 491 kts | 195° |
| 2026-04-29 07:26 | 17.20262 | 101.35454 | 41000 ft | 491 kts | 195° |
| 2026-04-29 07:27 | 17.13678 | 101.33492 | 40999 ft | 491 kts | 195° |
| 2026-04-29 07:27 | 17.07102 | 101.31538 | 41001 ft | 491 kts | 195° |
| 2026-04-29 07:28 | 17.00523 | 101.29564 | 41002 ft | 491 kts | 196° |
| 2026-04-29 07:28 | 16.93960 | 101.27597 | 41000 ft | 491 kts | 195° |
| 2026-04-29 07:29 | 16.87436 | 101.25647 | 40998 ft | 491 kts | 195° |
| 2026-04-29 07:29 | 16.80859 | 101.23684 | 41002 ft | 491 kts | 195° |
| 2026-04-29 07:30 | 16.74285 | 101.21724 | 40999 ft | 491 kts | 195° |
| 2026-04-29 07:30 | 16.67843 | 101.19806 | 41000 ft | 491 kts | 195° |
| 2026-04-29 07:31 | 16.58144 | 101.16334 | 41000 ft | 491 kts | 201° |
| 2026-04-29 07:31 | 16.51801 | 101.13793 | 41000 ft | 491 kts | 200° |
| 2026-04-29 07:32 | 16.45404 | 101.11302 | 41003 ft | 491 kts | 200° |
| 2026-04-29 07:32 | 16.38989 | 101.08860 | 40998 ft | 491 kts | 200° |
| 2026-04-29 07:33 | 16.32570 | 101.06432 | 41001 ft | 491 kts | 200° |
| 2026-04-29 07:33 | 16.26148 | 101.04003 | 40998 ft | 491 kts | 200° |
| 2026-04-29 07:34 | 16.20274 | 101.01781 | 40999 ft | 491 kts | 200° |
| 2026-04-29 07:34 | 16.13889 | 100.99365 | 40998 ft | 491 kts | 200° |
| 2026-04-29 07:35 | 16.07470 | 100.96939 | 40998 ft | 491 kts | 200° |
| 2026-04-29 07:35 | 16.01026 | 100.94504 | 40999 ft | 491 kts | 200° |
| 2026-04-29 07:36 | 15.94612 | 100.92083 | 40999 ft | 491 kts | 200° |
| 2026-04-29 07:36 | 15.88190 | 100.89661 | 41003 ft | 491 kts | 200° |
| 2026-04-29 07:37 | 15.81762 | 100.87237 | 41002 ft | 491 kts | 200° |
| 2026-04-29 07:37 | 15.75347 | 100.84821 | 40721 ft | 489 kts | 200° |
| 2026-04-29 07:38 | 15.72135 | 100.83612 | 39948 ft | 491 kts | 200° |
| 2026-04-29 07:38 | 15.68926 | 100.82404 | 39116 ft | 494 kts | 200° |
| 2026-04-29 07:38 | 15.65884 | 100.81258 | 38341 ft | 495 kts | 200° |
| 2026-04-29 07:38 | 15.62642 | 100.80037 | 37525 ft | 496 kts | 200° |
| 2026-04-29 07:39 | 15.59392 | 100.78813 | 36702 ft | 496 kts | 200° |
| 2026-04-29 07:39 | 15.56148 | 100.77591 | 35902 ft | 495 kts | 200° |
| 2026-04-29 07:39 | 15.52913 | 100.76373 | 35096 ft | 495 kts | 200° |
| 2026-04-29 07:39 | 15.49689 | 100.75159 | 34181 ft | 496 kts | 200° |
| 2026-04-29 07:40 | 15.46434 | 100.73926 | 33226 ft | 498 kts | 200° |
| 2026-04-29 07:40 | 15.43170 | 100.72685 | 32250 ft | 499 kts | 200° |
| 2026-04-29 07:40 | 15.39913 | 100.71449 | 31238 ft | 500 kts | 200° |
| 2026-04-29 07:40 | 15.36635 | 100.70209 | 30176 ft | 502 kts | 200° |
| 2026-04-29 07:41 | 15.33337 | 100.68967 | 29089 ft | 504 kts | 200° |
| 2026-04-29 07:41 | 15.30040 | 100.67739 | 28299 ft | 499 kts | 199° |
| 2026-04-29 07:41 | 15.26696 | 100.66927 | 27444 ft | 495 kts | 187° |
| 2026-04-29 07:41 | 15.23264 | 100.66625 | 26616 ft | 491 kts | 184° |
| 2026-04-29 07:42 | 15.19887 | 100.66429 | 25835 ft | 485 kts | 183° |
| 2026-04-29 07:42 | 15.16523 | 100.66249 | 25055 ft | 480 kts | 183° |
| 2026-04-29 07:42 | 15.13214 | 100.66075 | 24293 ft | 474 kts | 183° |
| 2026-04-29 07:42 | 15.09938 | 100.65902 | 23530 ft | 468 kts | 183° |
| 2026-04-29 07:43 | 15.06698 | 100.65732 | 22788 ft | 462 kts | 183° |
| 2026-04-29 07:43 | 15.03515 | 100.65564 | 22048 ft | 456 kts | 183° |
| 2026-04-29 07:43 | 15.00406 | 100.65401 | 21318 ft | 450 kts | 183° |
| 2026-04-29 07:43 | 14.97291 | 100.65237 | 20586 ft | 444 kts | 183° |
| 2026-04-29 07:44 | 14.94214 | 100.65075 | 19833 ft | 438 kts | 183° |
| 2026-04-29 07:44 | 14.91160 | 100.64915 | 19103 ft | 433 kts | 183° |
| 2026-04-29 07:44 | 14.88248 | 100.64762 | 18898 ft | 415 kts | 183° |
| 2026-04-29 07:44 | 14.85422 | 100.64614 | 18789 ft | 396 kts | 183° |
| 2026-04-29 07:45 | 14.82732 | 100.64473 | 18682 ft | 379 kts | 183° |
| 2026-04-29 07:45 | 14.80162 | 100.64338 | 18572 ft | 364 kts | 183° |
| 2026-04-29 07:45 | 14.77663 | 100.64207 | 18409 ft | 352 kts | 183° |
| 2026-04-29 07:45 | 14.75262 | 100.64081 | 18257 ft | 340 kts | 183° |
| 2026-04-29 07:46 | 14.72946 | 100.63977 | 18103 ft | 328 kts | 181° |
| 2026-04-29 07:46 | 14.70710 | 100.64241 | 17883 ft | 322 kts | 167° |
| 2026-04-29 07:46 | 14.68533 | 100.64859 | 17577 ft | 325 kts | 164° |
| 2026-04-29 07:46 | 14.66363 | 100.65537 | 17286 ft | 326 kts | 164° |
| 2026-04-29 07:47 | 14.64197 | 100.66215 | 17020 ft | 324 kts | 164° |
| 2026-04-29 07:47 | 14.62043 | 100.66885 | 16751 ft | 323 kts | 164° |
| 2026-04-29 07:47 | 14.59902 | 100.67547 | 16484 ft | 321 kts | 164° |
| 2026-04-29 07:47 | 14.57758 | 100.68208 | 16213 ft | 320 kts | 164° |
| 2026-04-29 07:48 | 14.55631 | 100.68870 | 15938 ft | 318 kts | 164° |
| 2026-04-29 07:48 | 14.53509 | 100.69523 | 15678 ft | 317 kts | 164° |
| 2026-04-29 07:48 | 14.51429 | 100.70162 | 15411 ft | 316 kts | 164° |